createdAt,value
2018-09-12T00:00:21.361Z,1.63
2018-09-12T00:02:49.988Z,2.13
2018-09-12T00:05:18.635Z,2.07
2018-09-12T00:07:47.269Z,2.23
2018-09-12T00:10:15.899Z,2.00
2018-09-12T00:12:44.551Z,2.10
2018-09-12T00:15:13.564Z,2.03
2018-09-12T00:17:42.210Z,2.43
2018-09-12T00:20:11.102Z,2.00
2018-09-12T00:22:39.969Z,1.80
2018-09-12T00:25:08.760Z,1.80
2018-09-12T00:27:37.539Z,1.87
2018-09-12T00:30:06.169Z,1.73
2018-09-12T00:32:34.815Z,1.97
2018-09-12T00:35:03.446Z,1.80
2018-09-12T00:37:32.092Z,2.57
2018-09-12T00:40:00.716Z,2.00
2018-09-12T00:42:29.371Z,2.00
2018-09-12T00:44:58.011Z,2.17
2018-09-12T00:47:26.669Z,1.90
2018-09-12T00:49:55.320Z,1.90
2018-09-12T00:52:23.968Z,2.07
2018-09-12T00:54:52.612Z,2.20
2018-09-12T00:57:21.290Z,1.90
2018-09-12T00:59:49.917Z,2.00
2018-09-12T01:02:18.554Z,2.03
2018-09-12T01:04:47.188Z,1.90
2018-09-12T01:07:15.829Z,1.90
2018-09-12T01:09:44.528Z,2.10
2018-09-12T01:12:13.164Z,2.03
2018-09-12T01:14:41.804Z,1.93
2018-09-12T01:17:10.455Z,2.07
2018-09-12T01:19:39.076Z,2.00
2018-09-12T01:22:07.718Z,1.70
2018-09-12T01:24:36.352Z,2.00
2018-09-12T01:27:05.016Z,2.00
2018-09-12T01:29:33.640Z,1.87
2018-09-12T01:32:02.276Z,1.90
2018-09-12T01:34:30.924Z,1.80
2018-09-12T01:36:59.553Z,1.90
2018-09-12T01:39:28.261Z,2.00
2018-09-12T01:41:56.856Z,1.70
2018-09-12T01:44:25.536Z,1.77
2018-09-12T01:46:54.176Z,2.17
2018-09-12T01:49:22.812Z,1.97
2018-09-12T01:51:51.524Z,1.87
2018-09-12T01:54:20.164Z,2.07
2018-09-12T01:56:48.801Z,2.03
2018-09-12T01:59:17.431Z,1.90
2018-09-12T02:01:46.271Z,2.10
2018-09-12T02:04:14.902Z,2.03
2018-09-12T02:06:43.525Z,2.40
2018-09-12T02:09:13.867Z,1.97
2018-09-12T02:11:42.529Z,1.90
2018-09-12T02:14:11.159Z,1.83
2018-09-12T02:16:39.859Z,2.37
2018-09-12T02:19:08.498Z,2.20
2018-09-12T02:21:37.127Z,2.17
2018-09-12T02:24:05.803Z,2.50
2018-09-12T02:26:34.437Z,2.20
2018-09-12T02:29:03.133Z,2.43
2018-09-12T02:31:31.755Z,2.13
2018-09-12T02:34:00.402Z,2.23
2018-09-12T02:36:29.761Z,2.10
2018-09-12T02:38:59.543Z,2.43
2018-09-12T02:41:28.177Z,2.10
2018-09-12T02:43:56.842Z,2.50
2018-09-12T02:46:25.485Z,2.30
2018-09-12T02:48:54.134Z,2.27
2018-09-12T02:51:22.774Z,2.17
2018-09-12T02:53:51.404Z,2.20
2018-09-12T02:56:20.078Z,2.10
2018-09-12T02:58:49.188Z,2.60
2018-09-12T03:01:17.832Z,2.30
2018-09-12T03:03:46.864Z,2.23
2018-09-12T03:06:15.527Z,2.30
2018-09-12T03:08:44.175Z,2.40
2018-09-12T03:11:12.800Z,2.20
2018-09-12T03:13:41.448Z,1.97
2018-09-12T03:16:10.080Z,2.37
2018-09-12T03:18:38.724Z,2.10
2018-09-12T03:21:07.494Z,1.87
2018-09-12T03:23:36.005Z,2.00
2018-09-12T03:26:04.698Z,2.30
2018-09-12T03:28:33.434Z,2.10
2018-09-12T03:31:02.071Z,2.00
2018-09-12T03:33:37.077Z,1.97
2018-09-12T03:36:05.773Z,1.90
2018-09-12T03:38:34.411Z,1.90
2018-09-12T03:41:03.046Z,2.37
2018-09-12T03:43:31.675Z,2.20
2018-09-12T03:46:00.389Z,2.43
2018-09-12T03:48:29.043Z,2.13
2018-09-12T03:50:57.712Z,2.80
2018-09-12T03:53:26.332Z,2.13
2018-09-12T03:55:55.015Z,2.03
2018-09-12T03:58:23.665Z,2.33
2018-09-12T04:00:52.323Z,2.10
2018-09-12T04:03:20.956Z,1.90
2018-09-12T04:05:49.580Z,2.30
2018-09-12T04:08:18.271Z,2.70
2018-09-12T04:10:46.956Z,2.23
2018-09-12T04:13:15.606Z,2.13
2018-09-12T04:15:44.241Z,2.20
2018-09-12T04:18:12.908Z,2.30
2018-09-12T04:20:41.614Z,2.70
2018-09-12T04:23:10.338Z,1.80
2018-09-12T04:25:38.980Z,2.40
2018-09-12T04:28:07.616Z,2.13
2018-09-12T04:30:36.252Z,2.30
2018-09-12T04:33:04.878Z,2.40
2018-09-12T04:35:33.521Z,2.70
2018-09-12T04:38:03.117Z,2.20
2018-09-12T04:40:31.913Z,2.50
2018-09-12T04:43:00.556Z,2.50
2018-09-12T04:45:29.199Z,2.70
2018-09-12T04:47:58.886Z,2.00
2018-09-12T04:53:02.461Z,2.20
2018-09-12T04:55:31.096Z,7.40
2018-09-12T04:57:59.804Z,7.57
2018-09-12T05:00:28.455Z,13.83
2018-09-12T05:02:57.076Z,6.10
2018-09-12T05:05:25.745Z,10.73
2018-09-12T05:07:54.529Z,10.80
2018-09-12T05:10:23.173Z,18.03
2018-09-12T05:12:51.817Z,4.90
2018-09-12T05:15:20.535Z,4.10
2018-09-12T05:17:49.167Z,4.00
2018-09-12T05:20:17.833Z,3.10
2018-09-12T05:22:46.463Z,3.13
2018-09-12T05:25:15.117Z,2.73
2018-09-12T05:27:44.747Z,4.47
2018-09-12T05:30:13.439Z,6.03
2018-09-12T05:32:42.151Z,5.27
2018-09-12T05:35:10.768Z,4.10
2018-09-12T05:37:39.399Z,2.40
2018-09-12T05:40:08.049Z,2.60
2018-09-12T05:42:36.742Z,2.27
2018-09-12T05:45:05.636Z,2.63
2018-09-12T05:47:34.277Z,3.57
2018-09-12T05:50:03.028Z,2.43
2018-09-12T05:52:31.735Z,3.57
2018-09-12T05:55:00.404Z,11.53
2018-09-12T05:57:29.117Z,4.43
2018-09-12T05:59:57.778Z,5.30
2018-09-12T06:02:26.440Z,3.53
2018-09-12T06:04:55.184Z,3.20
2018-09-12T06:07:23.867Z,2.60
2018-09-12T06:09:52.506Z,3.67
2018-09-12T06:12:21.132Z,2.37
2018-09-12T06:14:49.774Z,2.80
2018-09-12T06:17:18.441Z,2.83
2018-09-12T06:19:47.246Z,2.60
2018-09-12T06:22:15.910Z,2.70
2018-09-12T06:24:44.580Z,2.83
2018-09-12T06:27:13.205Z,3.10
2018-09-12T06:29:42.105Z,3.93
2018-09-12T06:32:10.908Z,6.40
2018-09-12T06:34:39.693Z,6.20
2018-09-12T06:37:08.518Z,3.03
2018-09-12T06:39:37.404Z,3.03
2018-09-12T06:42:06.331Z,2.83
2018-09-12T06:44:35.298Z,3.50
2018-09-12T06:47:04.092Z,3.40
2018-09-12T06:49:32.754Z,2.37
2018-09-12T06:52:01.392Z,2.90
2018-09-12T06:54:30.102Z,4.40
2018-09-12T06:56:58.736Z,2.47
2018-09-12T06:59:27.392Z,3.20
2018-09-12T07:01:56.022Z,4.27
2018-09-12T07:04:24.694Z,2.97
2018-09-12T07:06:53.350Z,2.70
2018-09-12T07:09:22.029Z,2.60
2018-09-12T07:11:50.719Z,2.60
2018-09-12T07:14:19.553Z,2.60
2018-09-12T07:16:48.058Z,2.73
2018-09-12T07:19:17.375Z,2.30
2018-09-12T07:21:46.208Z,3.17
2018-09-12T07:24:15.071Z,2.50
2018-09-12T07:26:43.672Z,2.70
2018-09-12T07:29:12.464Z,2.80
2018-09-12T07:31:41.385Z,2.57
2018-09-12T07:34:10.281Z,2.90
2018-09-12T07:36:39.355Z,2.80
2018-09-12T07:39:09.565Z,2.97
2018-09-12T07:41:38.381Z,2.60
2018-09-12T07:44:07.013Z,2.60
2018-09-12T07:46:36.501Z,2.97
2018-09-12T07:49:05.812Z,2.90
2018-09-12T07:51:34.445Z,3.40
2018-09-12T07:54:03.123Z,3.53
2018-09-12T07:56:31.849Z,4.33
2018-09-12T07:59:00.436Z,4.67
2018-09-12T08:01:29.089Z,4.03
2018-09-12T08:03:57.734Z,4.40
2018-09-12T08:06:26.426Z,2.63
2018-09-12T08:08:55.056Z,3.20
2018-09-12T08:11:23.726Z,2.57
2018-09-12T08:13:52.428Z,2.37
2018-09-12T08:16:21.042Z,2.90
2018-09-12T08:18:49.699Z,3.60
2018-09-12T08:21:18.327Z,3.77
2018-09-12T08:23:46.969Z,2.33
2018-09-12T08:26:15.649Z,2.63
2018-09-12T08:28:44.313Z,2.30
2018-09-12T08:31:12.977Z,2.27
2018-09-12T08:33:41.626Z,2.47
2018-09-12T08:36:10.293Z,2.57
2018-09-12T08:38:38.976Z,2.33
2018-09-12T08:41:07.645Z,2.43
2018-09-12T08:43:36.387Z,2.40
2018-09-12T08:46:05.014Z,2.60
2018-09-12T08:48:34.076Z,3.87
2018-09-12T08:51:02.709Z,2.53
2018-09-12T08:53:31.355Z,2.30
2018-09-12T08:56:00.085Z,2.80
2018-09-12T08:58:28.720Z,3.30
2018-09-12T09:00:57.375Z,2.80
2018-09-12T09:03:26.002Z,3.50
2018-09-12T09:05:54.677Z,2.40
2018-09-12T09:08:23.308Z,3.57
2018-09-12T09:10:51.984Z,2.33
2018-09-12T09:13:20.640Z,3.20
2018-09-12T09:15:49.309Z,2.37
2018-09-12T09:18:17.950Z,2.57
2018-09-12T09:20:46.609Z,2.30
2018-09-12T09:23:15.257Z,2.17
2018-09-12T09:25:43.911Z,2.30
2018-09-12T09:28:12.549Z,4.03
2018-09-12T09:30:41.259Z,2.87
2018-09-12T09:33:09.933Z,3.70
2018-09-12T09:35:38.763Z,4.47
2018-09-12T09:38:07.243Z,2.97
2018-09-12T09:40:35.929Z,2.40
2018-09-12T09:43:04.594Z,4.50
2018-09-12T09:45:33.274Z,2.73
2018-09-12T09:48:02.498Z,2.63
2018-09-12T09:50:31.115Z,2.60
2018-09-12T09:52:59.739Z,2.30
2018-09-12T09:55:28.373Z,2.17
2018-09-12T09:57:57.460Z,2.07
2018-09-12T10:00:31.363Z,2.57
2018-09-12T10:03:05.517Z,4.27
2018-09-12T10:05:39.490Z,2.17
2018-09-12T10:08:13.800Z,3.73
2018-09-12T10:10:42.461Z,2.50
2018-09-12T10:13:11.131Z,2.50
2018-09-12T10:15:39.768Z,2.40
2018-09-12T10:18:08.471Z,1.90
2018-09-12T10:20:37.109Z,2.33
2018-09-12T10:23:06.078Z,2.00
2018-09-12T10:25:34.719Z,2.00
2018-09-12T10:28:03.983Z,2.30
2018-09-12T10:30:32.697Z,1.90
2018-09-12T10:33:01.348Z,1.90
2018-09-12T10:35:30.020Z,1.80
2018-09-12T10:37:58.738Z,2.07
2018-09-12T10:40:27.356Z,2.03
2018-09-12T10:42:56.054Z,1.80
2018-09-12T10:45:24.717Z,2.03
2018-09-12T10:47:53.438Z,2.10
2018-09-12T10:50:22.090Z,2.13
2018-09-12T10:52:50.736Z,1.87
2018-09-12T10:55:19.433Z,1.87
2018-09-12T10:57:49.012Z,1.70
2018-09-12T11:00:17.765Z,1.70
2018-09-12T11:02:46.414Z,3.60
2018-09-12T11:05:15.070Z,4.90
2018-09-12T11:07:44.249Z,2.33
2018-09-12T11:10:13.049Z,2.13
2018-09-12T11:12:41.674Z,1.60
2018-09-12T11:15:10.379Z,1.90
2018-09-12T11:17:39.045Z,1.73
2018-09-12T11:20:07.678Z,1.57
2018-09-12T11:22:36.360Z,1.60
2018-09-12T11:25:05.032Z,1.67
2018-09-12T11:27:33.678Z,1.72
2018-09-12T11:30:02.347Z,1.50
2018-09-12T11:32:31.016Z,2.27
2018-09-12T11:34:59.681Z,1.80
2018-09-12T11:37:28.332Z,1.60
2018-09-12T11:39:57.029Z,1.63
2018-09-12T11:42:25.760Z,1.50
2018-09-12T11:44:54.459Z,1.50
2018-09-12T11:47:23.585Z,1.40
2018-09-12T11:49:52.219Z,1.60
2018-09-12T11:52:20.903Z,1.70
2018-09-12T11:54:49.551Z,1.60
2018-09-12T11:57:18.185Z,1.60
2018-09-12T11:59:46.876Z,1.53
2018-09-12T12:02:15.596Z,1.80
2018-09-12T12:04:44.186Z,1.90
2018-09-12T12:07:12.823Z,1.83
2018-09-12T12:09:41.520Z,2.03
2018-09-12T12:12:10.159Z,1.80
2018-09-12T12:14:38.823Z,1.80
2018-09-12T12:17:07.458Z,2.07
2018-09-12T12:19:36.105Z,3.27
2018-09-12T12:22:04.763Z,1.97
2018-09-12T12:24:33.410Z,2.00
2018-09-12T12:27:02.092Z,1.67
2018-09-12T12:29:30.732Z,1.90
2018-09-12T12:31:59.401Z,2.00
2018-09-12T12:34:28.062Z,2.00
2018-09-12T12:36:56.734Z,1.83
2018-09-12T12:39:25.352Z,1.80
2018-09-12T12:41:54.027Z,1.97
2018-09-12T12:44:22.701Z,2.07
2018-09-12T12:46:51.337Z,1.90
2018-09-12T12:49:19.980Z,2.50
2018-09-12T12:51:48.623Z,2.27
2018-09-12T12:54:17.261Z,2.40
2018-09-12T12:56:45.918Z,2.03
2018-09-12T12:59:14.595Z,1.73
2018-09-12T13:01:43.239Z,2.17
2018-09-12T13:04:12.702Z,2.10
2018-09-12T13:06:41.329Z,2.10
2018-09-12T13:09:10.001Z,1.97
2018-09-12T13:11:38.673Z,3.10
2018-09-12T13:14:07.676Z,2.00
2018-09-12T13:16:36.419Z,2.27
2018-09-12T13:19:05.297Z,2.10
2018-09-12T13:21:34.069Z,1.80
2018-09-12T13:24:02.724Z,2.17
2018-09-12T13:26:31.401Z,2.30
2018-09-12T13:29:00.076Z,2.47
2018-09-12T13:31:28.881Z,2.40
2018-09-12T13:33:57.629Z,1.97
2018-09-12T13:36:26.289Z,2.90
2018-09-12T13:38:55.002Z,1.93
2018-09-12T13:41:23.709Z,2.73
2018-09-12T13:43:53.223Z,1.97
2018-09-12T13:46:21.863Z,1.90
2018-09-12T13:48:50.526Z,2.17
2018-09-12T13:51:19.185Z,2.27
2018-09-12T13:53:47.824Z,2.23
2018-09-12T13:56:16.461Z,2.00
2018-09-12T13:58:45.151Z,1.93
2018-09-12T14:01:13.844Z,2.10
2018-09-12T14:03:42.497Z,2.20
2018-09-12T14:06:11.171Z,1.80
2018-09-12T14:08:39.878Z,2.10
2018-09-12T14:11:08.529Z,2.03
2018-09-12T14:13:37.179Z,2.40
2018-09-12T14:16:05.834Z,2.00
2018-09-12T14:18:34.490Z,2.13
2018-09-12T14:21:03.297Z,2.20
2018-09-12T14:23:32.121Z,2.40
2018-09-12T14:26:00.945Z,2.30
2018-09-12T14:28:29.858Z,2.13
2018-09-12T14:30:58.519Z,3.10
2018-09-12T14:33:27.165Z,2.20
2018-09-12T14:35:55.798Z,2.10
2018-09-12T14:38:24.478Z,2.93
2018-09-12T14:40:53.110Z,1.80
2018-09-12T14:43:21.780Z,2.57
2018-09-12T14:45:50.432Z,2.60
2018-09-12T14:48:19.076Z,5.70
2018-09-12T14:50:47.754Z,3.63
2018-09-12T14:53:16.380Z,2.60
2018-09-12T14:55:45.062Z,2.50
2018-09-12T14:58:13.726Z,3.17
2018-09-12T15:00:42.393Z,2.73
2018-09-12T15:03:11.069Z,2.30
2018-09-12T15:05:39.683Z,2.90
2018-09-12T15:08:08.344Z,4.23
2018-09-12T15:10:37.062Z,2.37
2018-09-12T15:13:05.849Z,2.43
2018-09-12T15:15:34.518Z,2.53
2018-09-12T15:18:03.152Z,2.30
2018-09-12T15:20:31.802Z,2.30
2018-09-12T15:23:00.448Z,2.30
2018-09-12T15:25:29.124Z,2.30
2018-09-12T15:27:57.773Z,2.60
2018-09-12T15:30:26.414Z,2.57
2018-09-12T15:32:55.066Z,2.60
2018-09-12T15:35:23.734Z,3.40
2018-09-12T15:37:52.360Z,3.03
2018-09-12T15:40:21.012Z,4.07
2018-09-12T15:42:49.658Z,3.63
2018-09-12T15:45:18.309Z,3.20
2018-09-12T15:47:46.935Z,3.90
2018-09-12T15:50:15.595Z,3.67
2018-09-12T15:52:44.230Z,3.17
2018-09-12T15:55:12.877Z,3.30
2018-09-12T15:57:41.507Z,2.90
2018-09-12T16:00:10.345Z,3.40
2018-09-12T16:02:39.241Z,3.10
2018-09-12T16:05:08.164Z,2.70
2018-09-12T16:07:36.953Z,2.97
2018-09-12T16:10:05.689Z,2.93
2018-09-12T16:12:34.327Z,2.50
2018-09-12T16:15:04.250Z,2.93
2018-09-12T16:17:32.861Z,3.30
2018-09-12T16:20:01.511Z,2.90
2018-09-12T16:22:30.181Z,3.40
2018-09-12T16:24:58.866Z,2.67
2018-09-12T16:27:27.542Z,3.10
2018-09-12T16:29:56.222Z,2.93
2018-09-12T16:32:24.915Z,2.90
2018-09-12T16:34:53.522Z,3.37
2018-09-12T16:37:22.198Z,2.93
2018-09-12T16:39:50.990Z,3.50
2018-09-12T16:42:19.806Z,2.90
2018-09-12T16:44:48.646Z,2.70
2018-09-12T16:47:17.473Z,3.10
2018-09-12T16:49:46.160Z,3.20
2018-09-12T16:52:14.797Z,3.43
2018-09-12T16:54:43.516Z,3.20
2018-09-12T16:57:12.160Z,3.10
2018-09-12T16:59:40.854Z,2.90
2018-09-12T17:02:09.495Z,3.03
2018-09-12T17:04:38.194Z,3.23
2018-09-12T17:07:06.850Z,2.90
2018-09-12T17:09:35.501Z,3.63
2018-09-12T17:12:04.195Z,2.70
2018-09-12T17:14:32.835Z,2.93
2018-09-12T17:17:01.512Z,3.30
2018-09-12T17:19:30.146Z,3.10
2018-09-12T17:21:58.848Z,2.93
2018-09-12T17:24:27.561Z,3.27
2018-09-12T17:26:56.250Z,2.80
2018-09-12T17:29:24.913Z,2.93
2018-09-12T17:31:53.575Z,2.73
2018-09-12T17:34:22.225Z,2.93
2018-09-12T17:36:50.903Z,4.47
2018-09-12T17:39:19.554Z,3.83
2018-09-12T17:41:48.200Z,2.97
2018-09-12T17:44:16.850Z,3.00
2018-09-12T17:46:45.514Z,2.80
2018-09-12T17:49:14.219Z,3.10
2018-09-12T17:51:42.852Z,3.70
2018-09-12T17:54:11.493Z,2.80
2018-09-12T17:56:40.166Z,2.87
2018-09-12T17:59:08.846Z,3.60
2018-09-12T18:01:37.620Z,3.07
2018-09-12T18:04:06.396Z,4.13
2018-09-12T18:06:35.087Z,4.10
2018-09-12T18:09:04.484Z,3.60
2018-09-12T18:11:33.145Z,4.00
2018-09-12T18:14:01.808Z,3.03
2018-09-12T18:16:30.481Z,4.13
2018-09-12T18:18:59.158Z,3.37
2018-09-12T18:21:27.864Z,2.73
2018-09-12T18:23:56.545Z,2.90
2018-09-12T18:26:25.204Z,3.07
2018-09-12T18:28:53.857Z,3.83
2018-09-12T18:31:22.512Z,3.17
2018-09-12T18:33:51.152Z,3.70
2018-09-12T18:36:19.830Z,4.30
2018-09-12T18:38:48.509Z,3.83
2018-09-12T18:41:17.200Z,2.73
2018-09-12T18:43:45.971Z,3.03
2018-09-12T18:46:14.661Z,2.43
2018-09-12T18:48:43.415Z,2.40
2018-09-12T18:51:12.065Z,2.50
2018-09-12T18:53:41.092Z,2.60
2018-09-12T18:56:09.761Z,2.57
2018-09-12T18:58:38.489Z,3.87
2018-09-12T19:01:07.120Z,3.30
2018-09-12T19:03:35.765Z,2.37
2018-09-12T19:06:04.369Z,2.30
2018-09-12T19:08:33.041Z,2.60
2018-09-12T19:11:01.885Z,2.40
2018-09-12T19:13:30.655Z,2.30
2018-09-12T19:15:59.419Z,2.73
2018-09-12T19:18:28.447Z,1.90
2018-09-12T19:20:57.117Z,1.27
2018-09-12T19:23:25.823Z,1.70
2018-09-12T19:25:54.601Z,1.10
2018-09-12T19:28:23.410Z,1.37
2018-09-12T19:30:52.041Z,1.40
2018-09-12T19:33:20.911Z,1.10
2018-09-12T19:35:49.603Z,5.73
2018-09-12T19:38:18.259Z,1.30
2018-09-12T19:40:46.929Z,1.10
2018-09-12T19:43:15.639Z,1.07
2018-09-12T19:45:44.308Z,1.10
2018-09-12T19:48:12.953Z,1.50
2018-09-12T19:50:41.770Z,1.00
2018-09-12T19:53:10.632Z,1.30
2018-09-12T19:55:39.341Z,0.90
2018-09-12T19:58:08.178Z,0.70
2018-09-12T20:00:36.911Z,0.97
2018-09-12T20:03:05.598Z,0.70
2018-09-12T20:05:34.272Z,1.10
2018-09-12T20:08:02.920Z,0.83
2018-09-12T20:10:31.594Z,5.43
2018-09-12T20:13:00.244Z,0.70
2018-09-12T20:15:28.896Z,1.00
2018-09-12T20:17:57.578Z,1.40
2018-09-12T20:20:26.264Z,2.00
2018-09-12T20:22:54.987Z,1.10
2018-09-12T20:25:23.673Z,0.80
2018-09-12T20:27:52.332Z,0.80
2018-09-12T20:30:21.020Z,0.97
2018-09-12T20:32:49.665Z,0.70
2018-09-12T20:35:18.352Z,0.90
2018-09-12T20:37:46.992Z,0.93
2018-09-12T20:40:15.809Z,0.90
2018-09-12T20:42:44.466Z,1.20
2018-09-12T20:45:13.132Z,1.00
2018-09-12T20:47:41.825Z,0.80
2018-09-12T20:50:10.486Z,3.80
2018-09-12T20:52:39.216Z,1.10
2018-09-12T20:55:07.872Z,1.30
2018-09-12T20:57:36.548Z,1.10
2018-09-12T21:00:05.538Z,1.20
2018-09-12T21:02:34.257Z,1.10
2018-09-12T21:05:02.905Z,1.20
2018-09-12T21:07:31.539Z,0.93
2018-09-12T21:10:00.203Z,1.37
2018-09-12T21:12:28.857Z,1.30
2018-09-12T21:14:57.493Z,1.43
2018-09-12T21:17:26.154Z,1.40
2018-09-12T21:19:55.825Z,1.77
2018-09-12T21:22:24.629Z,1.10
2018-09-12T21:24:53.410Z,1.20
2018-09-12T21:27:22.235Z,1.30
2018-09-12T21:29:50.893Z,1.20
2018-09-12T21:32:19.569Z,1.63
2018-09-12T21:34:48.219Z,1.20
2018-09-12T21:37:16.841Z,1.13
2018-09-12T21:39:45.501Z,1.10
2018-09-12T21:42:14.183Z,1.10
2018-09-12T21:44:42.840Z,1.30
2018-09-12T21:47:11.533Z,1.00
2018-09-12T21:49:40.281Z,1.20
2018-09-12T21:52:09.160Z,1.00
2018-09-12T21:54:40.222Z,1.20
2018-09-12T21:57:09.169Z,1.30
2018-09-12T21:59:38.383Z,1.07
2018-09-12T22:02:07.457Z,1.10
2018-09-12T22:04:36.203Z,1.10
2018-09-12T22:07:04.871Z,1.10
2018-09-12T22:09:33.640Z,1.20
2018-09-12T22:12:02.527Z,1.20
2018-09-12T22:14:31.384Z,1.57
2018-09-12T22:17:00.225Z,1.37
2018-09-12T22:19:28.866Z,1.10
2018-09-12T22:21:57.565Z,1.33
2018-09-12T22:24:26.191Z,1.73
2018-09-12T22:26:54.864Z,2.07
2018-09-12T22:29:23.497Z,1.27
2018-09-12T22:31:52.152Z,1.20
2018-09-12T22:34:20.806Z,1.20
2018-09-12T22:36:49.480Z,1.40
2018-09-12T22:39:18.136Z,1.30
2018-09-12T22:41:46.768Z,1.07
2018-09-12T22:44:15.421Z,1.20
2018-09-12T22:46:44.081Z,1.00
2018-09-12T22:49:12.911Z,0.93
2018-09-12T22:51:41.670Z,0.87
2018-09-12T22:54:10.490Z,0.90
2018-09-12T22:56:39.324Z,0.73
2018-09-12T22:59:08.176Z,2.00
2018-09-12T23:01:37.002Z,1.00
2018-09-12T23:04:05.876Z,0.90
2018-09-12T23:06:34.710Z,0.97
2018-09-12T23:09:03.499Z,1.00
2018-09-12T23:11:32.189Z,0.93
2018-09-12T23:14:00.820Z,1.30
2018-09-12T23:16:29.525Z,1.17
2018-09-12T23:18:58.159Z,1.00
2018-09-12T23:21:27.911Z,1.00
2018-09-12T23:23:56.539Z,1.10
2018-09-12T23:26:25.164Z,1.03
2018-09-12T23:28:54.003Z,1.00
2018-09-12T23:31:22.639Z,1.40
2018-09-12T23:33:51.317Z,1.00
2018-09-12T23:36:19.939Z,1.07
2018-09-12T23:38:48.581Z,0.90
2018-09-12T23:41:17.267Z,1.03
2018-09-12T23:43:45.891Z,0.80
2018-09-12T23:46:14.537Z,1.10
2018-09-12T23:48:43.351Z,1.00
2018-09-12T23:51:14.431Z,0.90
2018-09-12T23:53:43.065Z,0.90
2018-09-12T23:56:11.691Z,1.07
2018-09-12T23:58:40.408Z,1.00
